Time;durP1;ratioP1;P1;durP2;ratioP2;P2;SDS_P1;SDS_P2;PMS_P1;PMS_P2;Temp;Humidity;BMP_temperature;BMP_pressure;BME280_temperature;BME280_humidity;BME280_pressure;Samples;Min_cycle;Max_cycle;Signal;HPM_P1;HPM_P2
2023/01/11 00:00:29;;;;;;;;;2.00;1.00;;;;;22.43;45.81;100594.72;5077726;27;45493;-78
2023/01/11 00:03:30;;;;;;;;;4.75;1.00;;;;;22.39;45.96;100582.63;5047771;28;47269;-78
2023/01/11 00:05:57;;;;;;;;;0.00;0.00;;;;;22.53;45.81;100617.03;5082255;27;45583;-77
2023/01/11 00:08:25;;;;;;;;;0.00;0.00;;;;;22.42;45.85;100593.06;5066423;27;45552;-78
2023/01/11 00:10:51;;;;;;;;;0.00;0.00;;;;;22.49;45.61;100608.44;5073852;27;45551;-77
2023/01/11 00:13:17;;;;;;;;;1.00;0.00;;;;;22.52;46.09;100604.66;5070926;27;45447;-77
2023/01/11 00:15:42;;;;;;;;;0.25;0.25;;;;;22.49;45.70;100594.25;5069720;28;45545;-78
2023/01/11 00:18:08;;;;;;;;;0.00;0.00;;;;;22.46;45.75;100597.16;5073992;27;45522;-77
2023/01/11 00:20:39;;;;;;;;;1.75;0.25;;;;;22.50;45.77;100598.59;5059929;27;45552;-77
2023/01/11 00:23:05;;;;;;;;;0.00;0.00;;;;;22.45;45.65;100591.00;5061360;27;47094;-77
2023/01/11 00:25:30;;;;;;;;;0.25;0.25;;;;;22.46;45.94;100584.66;5059142;27;52177;-77
2023/01/11 00:27:55;;;;;;;;;2.00;1.00;;;;;22.48;45.64;100592.56;5076527;27;45418;-77
2023/01/11 00:30:21;;;;;;;;;1.25;0.00;;;;;22.48;45.43;100588.06;5054169;27;71292;-77
2023/01/11 00:32:46;;;;;;;;;0.00;0.00;;;;;22.43;45.97;100570.72;5081977;27;64721;-77
2023/01/11 00:35:14;;;;;;;;;0.00;0.00;;;;;22.50;45.80;100586.09;5071538;27;53184;-77
2023/01/11 00:37:40;;;;;;;;;0.00;0.00;;;;;22.45;45.56;100567.00;5059484;27;45505;-77
2023/01/11 00:40:06;;;;;;;;;0.25;0.25;;;;;22.49;45.92;100579.09;5094381;27;62202;-77
2023/01/11 00:48:00;;;;;;;;;0.00;0.00;;;;;22.46;45.67;100565.16;5073234;27;45455;-77
2023/01/11 00:50:29;;;;;;;;;0.00;0.00;;;;;22.47;45.96;100564.16;5064170;27;45527;-78
2023/01/11 00:52:55;;;;;;;;;0.00;0.00;;;;;22.46;45.82;100551.81;5071875;27;47676;-77
2023/01/11 00:55:21;;;;;;;;;0.00;0.00;;;;;22.48;45.44;100560.56;5066026;27;45483;-77
2023/01/11 00:57:47;;;;;;;;;1.00;0.25;;;;;22.46;45.91;100557.16;5062857;27;45320;-77
2023/01/11 01:00:12;;;;;;;;;0.00;0.00;;;;;22.50;45.72;100555.94;5073197;27;45423;-78
2023/01/11 01:02:38;;;;;;;;;0.00;0.00;;;;;22.49;45.87;100556.94;5049943;27;48444;-78
2023/01/11 01:05:03;;;;;;;;;0.00;0.00;;;;;22.47;45.60;100553.50;5067585;27;45456;-78
2023/01/11 01:07:29;;;;;;;;;3.00;0.00;;;;;22.43;45.70;100546.72;5066562;27;45375;-78
2023/01/11 01:09:54;;;;;;;;;0.00;0.00;;;;;22.46;45.72;100555.34;5054842;27;54301;-78
2023/01/11 01:15:04;;;;;;;;;0.00;0.00;;;;;22.40;45.91;100533.63;5086074;27;45890;-79
2023/01/11 01:17:29;;;;;;;;;0.75;0.00;;;;;22.43;45.65;100544.06;5065073;27;45602;-78
2023/01/11 01:19:55;;;;;;;;;0.25;0.00;;;;;22.42;45.70;100540.56;5063763;27;45555;-79
2023/01/11 01:22:20;;;;;;;;;1.00;0.00;;;;;22.46;45.94;100555.34;5068572;27;45907;-79
2023/01/11 01:24:45;;;;;;;;;0.00;0.00;;;;;22.28;46.13;100528.31;5051038;27;54298;-79
2023/01/11 01:27:15;;;;;;;;;1.00;0.00;;;;;22.48;46.02;100541.88;5069961;27;45490;-78
2023/01/11 01:29:41;;;;;;;;;1.00;1.00;;;;;22.48;45.75;100539.22;5073090;27;45737;-77
2023/01/11 01:32:06;;;;;;;;;0.00;0.00;;;;;22.45;46.29;100532.31;5090631;27;45292;-77
2023/01/11 01:34:36;;;;;;;;;0.00;0.00;;;;;22.36;45.73;100520.56;5089621;27;59105;-77
2023/01/11 01:37:01;;;;;;;;;1.00;0.00;;;;;22.44;45.76;100519.13;5075242;27;45512;-77
2023/01/11 01:39:27;;;;;;;;;0.00;0.00;;;;;22.45;46.06;100535.00;5075932;27;45244;-77
2023/01/11 01:41:52;;;;;;;;;1.00;0.00;;;;;22.46;45.79;100519.84;5064726;27;47084;-77
2023/01/11 01:44:48;;;;;;;;;0.75;0.00;;;;;22.49;46.19;100524.94;5077937;27;45292;-78
2023/01/11 01:47:14;;;;;;;;;0.00;0.00;;;;;22.47;45.71;100527.72;5092860;27;45393;-79
2023/01/11 01:49:40;;;;;;;;;0.75;0.00;;;;;22.47;46.09;100527.72;5069713;27;63348;-79
2023/01/11 01:52:07;;;;;;;;;0.00;0.00;;;;;22.46;45.96;100519.84;5072443;27;45403;-79
2023/01/11 01:54:36;;;;;;;;;0.75;0.00;;;;;22.46;46.04;100526.00;5066311;27;45580;-79
2023/01/11 01:57:05;;;;;;;;;0.00;0.00;;;;;22.48;45.71;100525.88;5089718;27;45411;-78
2023/01/11 01:59:31;;;;;;;;;0.00;0.00;;;;;22.48;46.25;100528.56;5078668;27;45478;-79
2023/01/11 02:01:57;;;;;;;;;0.00;0.00;;;;;22.40;46.33;100512.31;5070915;27;45521;-79
2023/01/11 02:04:27;;;;;;;;;0.00;0.00;;;;;22.47;46.26;100522.38;5065900;27;45561;-79
2023/01/11 02:06:56;;;;;;;;;0.00;0.00;;;;;22.45;45.98;100524.31;5070962;27;45321;-78
2023/01/11 02:09:46;;;;;;;;;0.00;0.00;;;;;22.46;45.90;100528.66;5058400;27;45535;-77
2023/01/11 02:12:11;;;;;;;;;0.00;0.00;;;;;22.44;46.10;100529.78;5073051;27;45573;-77
2023/01/11 02:14:38;;;;;;;;;0.00;0.00;;;;;22.46;45.96;100533.16;5082341;27;45470;-77
2023/01/11 02:17:04;;;;;;;;;1.00;0.00;;;;;22.43;45.94;100533.41;5056198;27;45442;-77
2023/01/11 02:19:51;;;;;;;;;1.75;0.00;;;;;22.44;46.29;100535.94;5058638;27;45538;-77
2023/01/11 02:22:34;;;;;;;;;0.00;0.00;;;;;22.45;45.71;100547.44;5096894;27;45636;-76
2023/01/11 02:25:03;;;;;;;;;0.00;0.00;;;;;22.45;46.25;100544.78;5078293;27;45813;-78
2023/01/11 02:27:50;;;;;;;;;0.00;0.00;;;;;22.44;46.29;100540.44;5078892;27;45504;-78
2023/01/11 02:30:23;;;;;;;;;1.75;0.00;;;;;22.41;45.97;100533.53;5073219;27;45534;-78
2023/01/11 02:33:24;;;;;;;;;0.00;0.00;;;;;22.43;45.76;100528.06;5050201;27;47128;-78
2023/01/11 02:36:20;;;;;;;;;0.00;0.00;;;;;22.41;46.02;100532.69;5066351;27;47299;-78
2023/01/11 02:38:56;;;;;;;;;0.00;0.00;;;;;22.41;45.88;100536.19;5079094;27;45405;-78
2023/01/11 02:45:00;;;;;;;;;0.00;0.00;;;;;22.41;46.08;100522.00;5080438;27;45492;-78
2023/01/11 02:47:17;;;;;;;;;0.00;0.00;;;;;22.35;45.86;100518.03;5074491;27;45554;-76
2023/01/11 02:50:06;;;;;;;;;0.75;0.00;;;;;22.36;46.15;100520.56;5069759;27;45579;-75
2023/01/11 02:52:40;;;;;;;;;0.00;0.00;;;;;22.40;46.16;100525.63;5052500;27;45961;-75
2023/01/11 02:55:07;;;;;;;;;0.25;0.00;;;;;22.40;45.93;100523.84;5089122;27;45720;-75
2023/01/11 02:57:34;;;;;;;;;0.00;0.00;;;;;22.35;45.74;100526.88;5059439;27;49475;-77
2023/01/11 03:00:00;;;;;;;;;0.00;0.00;;;;;22.29;45.77;100513.16;5058623;27;45430;-76
2023/01/11 03:02:26;;;;;;;;;0.25;0.00;;;;;22.35;46.08;100524.19;5051055;27;51835;-79
2023/01/11 03:04:52;;;;;;;;;0.00;0.00;;;;;22.29;45.80;100514.03;5075687;27;45368;-79
2023/01/11 03:07:29;;;;;;;;;0.00;0.00;;;;;22.24;46.27;100497.53;5059643;27;45232;-79
2023/01/11 03:10:33;;;;;;;;;1.25;0.00;;;;;22.32;46.00;100519.09;5060318;27;45367;-79
2023/01/11 03:13:18;;;;;;;;;0.00;0.00;;;;;22.37;46.00;100513.41;5074874;27;45611;-78
2023/01/11 03:15:55;;;;;;;;;0.50;0.00;;;;;22.32;46.06;100504.94;5057979;27;48317;-79
2023/01/11 03:18:47;;;;;;;;;0.00;0.00;;;;;22.21;46.03;100492.44;5074354;27;45565;-79
2023/01/11 06:41:10;;;;;;;;;0.00;0.00;;;;;19.69;50.99;100757.00;5101269;27;45555;-82
2023/01/11 06:43:36;;;;;;;;;0.00;0.00;;;;;19.81;50.79;100775.78;5095376;27;45428;-77
2023/01/11 06:46:02;;;;;;;;;2.50;0.00;;;;;19.95;50.39;100775.72;5091091;27;45455;-74
2023/01/11 06:48:27;;;;;;;;;0.00;0.00;;;;;20.04;50.40;100787.53;5089144;27;45410;-75
2023/01/11 06:50:55;;;;;;;;;0.75;0.00;;;;;20.15;50.27;100801.00;5069312;28;47091;-74
2023/01/11 06:53:21;;;;;;;;;0.00;0.00;;;;;20.23;49.92;100797.81;5090607;27;45232;-75
2023/01/11 06:55:51;;;;;;;;;0.50;0.00;;;;;20.33;49.70;100800.69;5108853;27;45536;-76
2023/01/11 06:58:17;;;;;;;;;0.50;0.00;;;;;20.33;49.90;100788.28;5093005;27;45258;-77
2023/01/11 07:00:42;;;;;;;;;0.00;0.00;;;;;20.46;49.84;100804.25;5089301;27;45417;-76
2023/01/11 07:03:09;;;;;;;;;1.25;0.00;;;;;20.53;49.44;100810.00;5102987;27;45259;-77
2023/01/11 07:05:35;;;;;;;;;1.00;0.00;;;;;20.54;49.47;100801.94;5071826;27;45395;-77
2023/01/11 07:08:01;;;;;;;;;1.75;0.00;;;;;20.58;49.56;100799.91;5096183;27;45212;-76
2023/01/11 07:10:27;;;;;;;;;0.50;0.50;;;;;20.62;49.02;100802.28;5089632;27;56549;-78
2023/01/11 07:12:52;;;;;;;;;2.75;0.00;;;;;20.55;49.10;100790.31;5088214;27;45733;-80
2023/01/11 07:15:18;;;;;;;;;0.75;0.00;;;;;20.68;49.24;100803.66;5089025;27;45394;-78
2023/01/11 07:17:44;;;;;;;;;0.00;0.00;;;;;20.73;49.01;100806.84;5084042;27;45497;-81
2023/01/11 07:20:10;;;;;;;;;0.75;0.00;;;;;20.82;49.29;100802.72;5083378;27;45507;-80
2023/01/11 07:22:35;;;;;;;;;0.75;0.00;;;;;20.88;49.17;100801.47;5090873;27;45591;-80
2023/01/11 07:25:02;;;;;;;;;0.00;0.00;;;;;20.98;48.83;100814.00;5088209;27;45516;-79
2023/01/11 07:27:28;;;;;;;;;2.00;0.00;;;;;21.06;48.81;100808.16;5082639;27;45470;-78
2023/01/11 07:29:53;;;;;;;;;0.75;0.75;;;;;21.13;48.78;100812.06;5087564;27;46110;-76
2023/01/11 07:32:19;;;;;;;;;4.75;0.00;;;;;21.21;48.46;100816.84;5073842;27;45259;-75
2023/01/11 07:34:44;;;;;;;;;2.75;0.25;;;;;21.21;48.82;100819.50;5124472;27;45469;-76
2023/01/11 07:37:10;;;;;;;;;3.25;0.00;;;;;21.27;48.49;100827.06;5093732;27;45489;-76
2023/01/11 07:39:35;;;;;;;;;0.50;0.00;;;;;21.41;48.58;100839.41;5089203;27;45390;-76
2023/01/11 07:44:46;;;;;;;;;1.50;0.00;;;;;21.42;48.56;100830.44;5087352;27;45408;-76
2023/01/11 07:47:11;;;;;;;;;1.75;0.00;;;;;21.50;48.60;100837.94;5083751;27;58656;-76
2023/01/11 07:49:37;;;;;;;;;1.00;0.00;;;;;21.55;48.65;100863.28;5124106;27;46497;-77
2023/01/11 07:52:02;;;;;;;;;0.00;0.00;;;;;21.56;48.13;100874.78;5085117;27;45336;-76
2023/01/11 07:54:27;;;;;;;;;0.25;0.00;;;;;21.56;48.48;100869.44;5081430;27;45746;-76
2023/01/11 07:56:55;;;;;;;;;0.00;0.00;;;;;21.61;48.38;100886.78;5076650;28;56634;-76
2023/01/11 07:59:20;;;;;;;;;0.25;0.00;;;;;21.63;48.26;100883.19;5090716;27;48421;-77
2023/01/11 08:01:46;;;;;;;;;0.00;0.00;;;;;21.68;48.31;100902.34;5080328;27;45399;-76
2023/01/11 08:04:13;;;;;;;;;1.75;0.00;;;;;21.71;48.16;100913.66;5073484;28;50776;-76
2023/01/11 08:06:38;;;;;;;;;0.00;0.00;;;;;21.73;48.12;100910.88;5072817;27;45267;-77
2023/01/11 08:09:05;;;;;;;;;0.00;0.00;;;;;21.76;48.19;100907.97;5108727;27;45462;-76
2023/01/11 08:14:39;;;;;;;;;0.00;0.00;;;;;21.74;47.77;100917.88;5023271;28;45372;-77
2023/01/11 08:17:15;;;;;;;;;0.00;0.00;;;;;21.81;48.00;100940.47;5015312;28;45471;-76
2023/01/11 08:19:41;;;;;;;;;0.00;0.00;;;;;21.83;47.89;100941.19;5033026;28;48024;-77
2023/01/11 08:22:07;;;;;;;;;3.25;0.00;;;;;21.82;47.73;100944.00;5085054;27;45328;-77
2023/01/11 08:24:33;;;;;;;;;1.00;0.00;;;;;21.75;48.02;100920.44;5087510;27;45554;-76
2023/01/11 08:26:59;;;;;;;;;0.00;0.00;;;;;21.79;47.70;100932.56;5075322;28;45391;-76
2023/01/11 08:29:25;;;;;;;;;0.50;0.00;;;;;21.78;47.70;100930.91;5076152;28;46872;-76
2023/01/11 08:31:50;;;;;;;;;2.50;0.00;;;;;21.84;47.70;100950.91;5078301;28;66086;-76
2023/01/11 08:34:16;;;;;;;;;0.25;0.25;;;;;21.87;47.45;100961.38;5070457;28;45316;-75
2023/01/11 08:36:41;;;;;;;;;1.75;0.00;;;;;21.82;47.85;100958.16;5059301;28;45550;-75
2023/01/11 08:39:07;;;;;;;;;1.25;0.00;;;;;21.84;47.39;100958.06;5077668;27;48006;-77
2023/01/11 08:42:03;;;;;;;;;0.25;0.00;;;;;21.89;47.07;100969.25;5069814;27;45471;-76
2023/01/11 08:44:28;;;;;;;;;1.75;0.00;;;;;21.86;47.38;100967.63;5058247;28;45521;-77
2023/01/11 08:46:54;;;;;;;;;0.00;0.00;;;;;21.67;47.47;100935.28;5051935;28;45401;-78
2023/01/11 08:49:19;;;;;;;;;1.00;0.00;;;;;21.80;47.50;100952.94;5045054;28;52526;-78
2023/01/11 08:51:44;;;;;;;;;1.50;0.00;;;;;21.83;47.65;100964.34;5047362;28;48455;-78
2023/01/11 08:54:12;;;;;;;;;0.75;0.00;;;;;21.72;47.48;100946.47;5038195;28;45491;-79
2023/01/11 08:56:37;;;;;;;;;0.00;0.00;;;;;21.92;47.48;100987.66;5033345;28;45826;-79
2023/01/11 08:59:04;;;;;;;;;0.00;0.00;;;;;21.79;46.69;100974.38;5055345;28;45386;-79
2023/01/11 09:01:29;;;;;;;;;0.00;0.00;;;;;21.88;47.12;100995.03;5056851;28;45586;-77
2023/01/11 09:03:55;;;;;;;;;3.25;1.00;;;;;21.83;47.27;100988.31;5052979;28;45619;-75
2023/01/11 09:06:21;;;;;;;;;0.50;0.00;;;;;21.76;47.22;100977.22;5046523;28;45413;-77
2023/01/11 09:08:47;;;;;;;;;2.75;0.00;;;;;21.66;46.86;100958.41;5038033;28;45403;-76
2023/01/11 09:13:56;;;;;;;;;0.50;0.00;;;;;21.86;46.80;101004.09;5055152;28;45468;-77
2023/01/11 09:16:21;;;;;;;;;0.00;0.00;;;;;21.92;47.21;101009.84;5054638;28;45445;-77
2023/01/11 09:18:47;;;;;;;;;0.25;0.25;;;;;21.90;46.72;101021.56;5035656;28;45489;-76
2023/01/11 09:21:12;;;;;;;;;2.00;0.00;;;;;21.85;46.95;101007.72;5054797;28;53399;-76
2023/01/11 09:23:38;;;;;;;;;0.75;0.00;;;;;21.91;46.94;101034.78;5034507;28;45587;-76
2023/01/11 09:26:03;;;;;;;;;0.50;0.00;;;;;21.88;46.50;101035.00;5046309;28;46456;-77
2023/01/11 09:28:28;;;;;;;;;0.75;0.75;;;;;21.87;46.69;101035.97;5046931;28;45419;-77
2023/01/11 09:30:54;;;;;;;;;1.75;0.25;;;;;21.84;46.94;101028.19;5048241;28;53648;-76
2023/01/11 09:33:19;;;;;;;;;0.50;0.00;;;;;21.87;46.52;101037.75;5051324;28;45250;-76
2023/01/11 09:35:45;;;;;;;;;2.00;0.00;;;;;21.87;46.66;101035.97;5048410;28;57065;-77
2023/01/11 09:38:11;;;;;;;;;3.50;0.75;;;;;21.85;46.42;101040.56;5054163;28;45411;-77
2023/01/11 09:40:48;;;;;;;;;1.25;0.00;;;;;21.89;46.75;101049.19;5033316;28;48180;-76
2023/01/11 09:43:15;;;;;;;;;0.00;0.00;;;;;21.80;46.51;101042.69;5052549;28;45370;-77
2023/01/11 09:45:45;;;;;;;;;0.00;0.00;;;;;21.90;46.41;101062.41;5032717;28;45479;-77
2023/01/11 09:48:27;;;;;;;;;2.00;0.00;;;;;21.90;46.73;101073.06;5046152;28;45461;-77
2023/01/11 09:50:53;;;;;;;;;2.00;0.00;;;;;21.86;46.92;101060.06;5055540;28;45482;-77
2023/01/11 09:53:30;;;;;;;;;0.25;0.25;;;;;21.86;46.40;101068.03;5023491;28;45470;-77
2023/01/11 09:55:58;;;;;;;;;2.00;0.00;;;;;21.84;46.44;101070.81;5035523;28;45405;-77
2023/01/11 09:58:47;;;;;;;;;1.75;0.75;;;;;21.89;46.31;101090.00;5035626;28;45404;-76
2023/01/11 10:01:20;;;;;;;;;0.00;0.00;;;;;21.89;46.37;101089.16;5045487;28;47201;-77
2023/01/11 10:03:53;;;;;;;;;2.75;0.00;;;;;21.89;46.21;101094.47;5015781;28;45860;-76
2023/01/11 10:06:25;;;;;;;;;0.25;0.25;;;;;21.83;46.37;101090.41;5035151;28;45355;-77
2023/01/11 10:09:04;;;;;;;;;0.00;0.00;;;;;21.88;46.62;101109.59;5038022;28;45472;-76
2023/01/11 10:11:50;;;;;;;;;1.25;0.00;;;;;21.88;46.21;101106.09;5035871;28;47143;-77
2023/01/11 10:14:43;;;;;;;;;2.00;0.00;;;;;21.85;46.21;101106.28;5050209;28;45962;-78
2023/01/11 10:17:29;;;;;;;;;0.50;0.50;;;;;21.86;46.00;101111.53;5031101;28;45526;-78
2023/01/11 10:20:02;;;;;;;;;2.75;0.50;;;;;21.86;46.01;101110.69;5039694;28;45528;-77
2023/01/11 10:22:35;;;;;;;;;2.00;0.00;;;;;21.78;46.35;101103.22;5037869;28;46260;-76
2023/01/11 10:25:17;;;;;;;;;4.00;0.00;;;;;21.85;46.34;101114.28;5038147;28;45694;-77
2023/01/11 10:28:01;;;;;;;;;1.75;0.00;;;;;21.85;46.22;101111.63;5040546;28;45526;-77
2023/01/11 10:30:52;;;;;;;;;0.75;0.00;;;;;21.81;45.92;101108.31;5032891;28;45708;-76
2023/01/11 10:40:05;;;;;;;;;0.00;0.00;;;;;21.80;46.08;101130.59;5037035;28;45578;-76
2023/01/11 10:42:37;;;;;;;;;2.00;0.00;;;;;21.83;45.55;101124.19;5022719;28;45870;-75
2023/01/11 10:45:11;;;;;;;;;0.00;0.00;;;;;21.76;46.16;101113.97;5033870;28;46144;-75
2023/01/11 10:47:42;;;;;;;;;1.25;1.00;;;;;21.80;45.77;101120.78;5037041;28;45766;-75
2023/01/11 10:50:18;;;;;;;;;1.50;1.00;;;;;21.81;46.25;101118.97;5022893;28;45472;-76
2023/01/11 10:52:58;;;;;;;;;1.00;1.00;;;;;21.81;46.07;101124.28;5038112;28;45423;-75
2023/01/11 10:55:35;;;;;;;;;1.00;0.00;;;;;21.75;46.01;101122.91;5037458;28;45764;-75
2023/01/11 10:58:05;;;;;;;;;0.00;0.00;;;;;21.75;45.66;101125.56;5032933;28;45423;-75
2023/01/11 11:01:07;;;;;;;;;2.50;0.00;;;;;21.80;45.82;101144.78;5019536;28;45762;-75
2023/01/11 11:03:44;;;;;;;;;3.50;0.00;;;;;21.78;45.82;101137.84;5026751;28;45403;-75
2023/01/11 11:06:32;;;;;;;;;1.00;0.00;;;;;21.78;45.57;101143.19;5039338;28;45670;-76
2023/01/11 11:09:06;;;;;;;;;0.25;0.25;;;;;21.74;45.55;101147.00;5047594;28;45519;-76
2023/01/11 11:11:39;;;;;;;;;2.00;1.00;;;;;21.77;45.61;101149.44;5017622;28;45533;-75
2023/01/11 11:14:17;;;;;;;;;3.00;1.00;;;;;21.75;45.59;101146.88;5023207;28;45559;-75
2023/01/11 11:17:07;;;;;;;;;1.00;1.00;;;;;21.72;45.74;101143.56;5049622;28;48253;-75
2023/01/11 11:19:32;;;;;;;;;0.50;0.25;;;;;21.73;45.60;101148.81;5031327;28;45278;-76
2023/01/11 11:21:59;;;;;;;;;0.75;0.75;;;;;21.74;45.84;101147.88;5028339;28;46017;-76
2023/01/11 11:24:37;;;;;;;;;2.00;0.25;;;;;21.76;45.53;101153.94;5024046;28;45854;-75
2023/01/11 11:27:14;;;;;;;;;3.00;0.25;;;;;21.75;45.71;101148.72;5038856;28;46578;-75
2023/01/11 11:29:41;;;;;;;;;3.50;1.00;;;;;21.75;45.47;101157.53;5035820;28;45798;-75
2023/01/11 11:32:24;;;;;;;;;1.50;0.00;;;;;21.71;45.54;101158.72;5032145;28;45379;-75
2023/01/11 11:34:50;;;;;;;;;3.00;0.25;;;;;21.74;45.87;101157.63;5034707;28;45569;-75
2023/01/11 11:37:23;;;;;;;;;0.50;0.00;;;;;21.70;45.56;101149.00;5030094;28;45426;-75
2023/01/11 11:39:50;;;;;;;;;2.25;1.00;;;;;21.71;45.68;101158.72;5024265;28;46369;-75
2023/01/11 11:42:16;;;;;;;;;0.75;0.75;;;;;21.71;45.30;101161.38;5035362;28;45380;-75
2023/01/11 11:44:42;;;;;;;;;2.00;0.00;;;;;21.71;45.07;101156.06;5040002;28;45347;-76
2023/01/11 11:47:15;;;;;;;;;0.50;0.00;;;;;21.69;45.04;101160.63;5034256;28;45486;-75
2023/01/11 11:49:44;;;;;;;;;1.25;0.00;;;;;21.59;45.16;101141.75;5018599;28;45508;-75
2023/01/11 11:52:12;;;;;;;;;1.50;1.00;;;;;21.74;45.40;101166.50;5036503;28;45424;-75
2023/01/11 11:54:47;;;;;;;;;2.00;1.00;;;;;21.73;45.61;101167.47;5036862;28;45575;-75
2023/01/11 11:57:30;;;;;;;;;2.00;0.50;;;;;21.70;45.25;101157.00;5017267;28;48514;-75
2023/01/11 12:00:04;;;;;;;;;2.00;0.75;;;;;21.71;45.32;101166.72;5049760;28;45463;-74
2023/01/11 12:02:30;;;;;;;;;2.25;0.75;;;;;21.72;45.38;101172.88;5038342;28;45439;-75
2023/01/11 12:05:05;;;;;;;;;2.00;1.00;;;;;21.71;45.32;101166.72;5032675;28;45379;-75
2023/01/11 12:07:35;;;;;;;;;1.00;1.00;;;;;21.68;45.30;101153.59;5014888;28;46764;-76
2023/01/11 12:10:10;;;;;;;;;2.00;0.25;;;;;21.70;45.14;101162.31;5033571;28;45842;-75
2023/01/11 12:12:55;;;;;;;;;1.00;0.00;;;;;21.65;45.19;101152.94;5034271;28;45771;-75
2023/01/11 12:15:26;;;;;;;;;1.00;1.00;;;;;21.67;45.22;101157.19;5026643;28;45420;-76
2023/01/11 12:17:53;;;;;;;;;2.00;1.00;;;;;21.68;45.18;101158.06;5018953;28;48266;-76
2023/01/11 12:20:24;;;;;;;;;2.00;1.00;;;;;21.72;45.47;101163.06;5051671;28;45396;-79
2023/01/11 12:23:07;;;;;;;;;2.50;1.00;;;;;21.69;45.26;101159.75;5024982;28;45640;-76
2023/01/11 12:25:35;;;;;;;;;1.25;1.25;;;;;21.70;45.47;101172.13;5010987;28;45866;-75
2023/01/11 12:28:10;;;;;;;;;3.75;1.25;;;;;21.76;45.28;101179.69;5031085;28;47317;-75
2023/01/11 12:30:45;;;;;;;;;3.00;2.00;;;;;21.78;45.14;101169.81;5037816;28;46084;-80
2023/01/11 12:33:34;;;;;;;;;2.75;1.00;;;;;21.79;45.03;101164.38;5031070;28;45526;-76
2023/01/11 12:36:21;;;;;;;;;5.50;4.00;;;;;21.81;45.63;101161.59;5024258;28;45314;-81
2023/01/11 12:38:54;;;;;;;;;58.25;46.00;;;;;21.84;45.50;101169.41;5017828;28;46923;-75
2023/01/11 12:41:43;;;;;;;;;85.50;76.00;;;;;21.86;45.53;101151.50;5039104;28;45391;-78
2023/01/11 12:44:18;;;;;;;;;107.50;91.75;;;;;21.88;46.25;101157.56;5037147;28;45486;-79
2023/01/11 12:47:40;;;;;;;;;111.75;97.00;;;;;21.71;46.26;101132.06;5030139;28;45482;-80
2023/01/11 12:50:19;;;;;;;;;115.75;101.75;;;;;21.81;46.04;101142.94;5025633;28;45665;-76
2023/01/11 12:52:52;;;;;;;;;103.00;93.75;;;;;21.95;46.01;101152.66;5017781;28;45673;-77
2023/01/11 12:55:23;;;;;;;;;108.50;90.00;;;;;21.95;46.67;101158.84;5006797;28;47540;-77
2023/01/11 12:58:04;;;;;;;;;104.25;91.75;;;;;21.93;46.46;101151.94;5047946;28;45496;-77
2023/01/11 13:00:56;;;;;;;;;106.00;92.00;;;;;21.92;46.65;101159.06;5016403;28;45762;-80
2023/01/11 13:03:47;;;;;;;;;103.75;87.75;;;;;21.89;46.50;101153.94;5030570;28;45355;-75
2023/01/11 13:06:19;;;;;;;;;97.25;84.75;;;;;22.03;46.79;101169.00;5038321;28;45591;-75
2023/01/11 13:08:58;;;;;;;;;87.75;77.50;;;;;22.04;46.86;101168.03;5036823;28;45663;-76
2023/01/11 13:11:36;;;;;;;;;85.75;70.75;;;;;22.07;46.57;101165.16;5037089;28;45380;-74
2023/01/11 13:14:25;;;;;;;;;84.75;77.75;;;;;22.01;46.34;101160.25;5034749;28;45915;-75
2023/01/11 13:17:14;;;;;;;;;82.50;72.75;;;;;22.10;46.82;101178.28;5038855;28;45433;-77
2023/01/11 13:19:57;;;;;;;;;80.00;70.50;;;;;22.11;46.41;101176.47;5039283;28;45382;-76
2023/01/11 13:22:32;;;;;;;;;74.50;63.00;;;;;22.08;46.12;101164.22;5029172;28;46871;-76
2023/01/11 13:25:00;;;;;;;;;78.75;63.25;;;;;22.12;46.45;101171.03;5038126;28;45541;-76
2023/01/11 13:27:28;;;;;;;;;72.00;56.25;;;;;22.11;46.85;101179.13;5032680;28;45651;-76
2023/01/11 13:29:55;;;;;;;;;72.50;56.25;;;;;21.99;46.55;101160.38;5040179;28;46132;-76
2023/01/11 13:32:27;;;;;;;;;67.25;53.00;;;;;22.07;46.63;101166.97;5049055;28;45732;-76
2023/01/11 13:34:57;;;;;;;;;66.50;51.50;;;;;22.14;46.40;101179.78;5036622;28;45865;-76
2023/01/11 13:37:30;;;;;;;;;69.50;57.00;;;;;22.17;46.76;101189.38;5034938;28;45427;-76
2023/01/11 13:40:14;;;;;;;;;63.25;50.25;;;;;22.23;46.75;101204.09;5044850;28;45466;-76
2023/01/11 13:42:43;;;;;;;;;63.25;49.25;;;;;22.16;46.54;101177.00;5038755;28;46547;-76
2023/01/11 13:45:20;;;;;;;;;64.50;50.50;;;;;22.12;46.27;101179.03;5027161;28;45508;-75
2023/01/11 13:48:05;;;;;;;;;64.75;50.00;;;;;22.25;46.72;101187.03;5026706;28;45423;-76
2023/01/11 13:50:36;;;;;;;;;59.50;47.00;;;;;22.26;46.40;101191.41;5022878;28;46519;-76
2023/01/11 13:53:13;;;;;;;;;60.00;45.50;;;;;22.14;46.41;101176.25;5022876;28;48205;-75
2023/01/11 13:55:39;;;;;;;;;53.50;42.75;;;;;22.29;46.36;101203.69;5046231;28;45402;-75
2023/01/11 13:58:13;;;;;;;;;56.75;43.75;;;;;22.29;46.22;101193.03;5041510;28;45348;-75
2023/01/11 14:01:02;;;;;;;;;54.50;45.00;;;;;22.27;46.40;101187.81;5037666;28;45659;-75
2023/01/11 14:03:43;;;;;;;;;52.25;42.25;;;;;22.31;46.51;101191.97;5052662;28;46147;-75
2023/01/11 14:06:40;;;;;;;;;52.50;42.50;;;;;22.31;46.21;101210.66;5043292;28;45940;-75
2023/01/11 14:09:32;;;;;;;;;53.00;40.50;;;;;22.29;46.31;101203.69;5034243;28;45326;-76
2023/01/11 14:12:06;;;;;;;;;48.50;37.25;;;;;22.34;46.30;101213.06;5039882;28;45559;-77
2023/01/11 14:14:48;;;;;;;;;45.75;36.25;;;;;22.34;46.34;101209.56;5037234;28;46559;-76
2023/01/11 14:17:37;;;;;;;;;43.25;35.25;;;;;22.35;46.56;101208.63;5035619;28;45622;-75
2023/01/11 14:20:27;;;;;;;;;46.25;34.25;;;;;22.36;45.90;101200.53;5030715;28;45913;-76
2023/01/11 14:23:12;;;;;;;;;46.75;32.00;;;;;22.39;46.49;101214.59;5020496;28;45305;-75
2023/01/11 14:26:14;;;;;;;;;42.75;33.25;;;;;22.37;46.26;101202.22;5021796;28;46797;-75
2023/01/11 14:28:42;;;;;;;;;35.50;31.25;;;;;22.40;46.41;101194.94;5028438;28;45435;-75
2023/01/11 14:31:26;;;;;;;;;39.75;30.50;;;;;22.40;45.87;101197.63;5045914;28;45568;-75
2023/01/11 14:34:19;;;;;;;;;35.50;30.25;;;;;22.41;46.41;101202.84;5034182;28;45279;-75
2023/01/11 14:36:56;;;;;;;;;42.25;32.25;;;;;22.42;46.28;101211.72;5036470;28;46222;-75
2023/01/11 14:40:02;;;;;;;;;32.50;28.75;;;;;22.28;45.86;101191.34;5038146;28;45413;-75
2023/01/11 14:42:43;;;;;;;;;33.00;28.50;;;;;22.43;46.28;101216.94;5058025;28;45486;-77
2023/01/11 14:45:12;;;;;;;;;29.00;26.25;;;;;22.45;45.91;101216.81;5039375;28;45403;-76
2023/01/11 14:47:46;;;;;;;;;29.50;26.00;;;;;22.45;46.29;101216.81;5051961;28;45663;-75
2023/01/11 14:50:18;;;;;;;;;24.50;22.50;;;;;22.41;46.25;101205.50;5052000;28;45820;-75
2023/01/11 14:52:44;;;;;;;;;24.25;20.00;;;;;22.33;46.21;101190.06;5039703;28;45528;-76
2023/01/11 14:55:30;;;;;;;;;24.25;20.50;;;;;22.41;45.82;101202.84;5041941;28;45617;-75
2023/01/11 14:57:55;;;;;;;;;25.50;18.00;;;;;22.49;45.73;101219.19;5013036;28;48175;-75
2023/01/11 15:00:21;;;;;;;;;22.33;19.67;;;;;22.49;45.99;101213.00;5056357;28;45396;-75
2023/01/11 15:03:09;;;;;;;;;26.67;21.67;;;;;22.50;45.87;101220.88;5038244;28;45260;-75
2023/01/11 15:05:37;;;;;;;;;20.50;18.00;;;;;22.46;45.98;101211.38;5034547;28;45480;-75
2023/01/11 15:08:12;;;;;;;;;21.00;19.75;;;;;22.52;46.23;101229.66;5026772;28;45697;-75
2023/01/11 15:11:01;;;;;;;;;21.75;17.00;;;;;22.53;45.85;101219.81;5045668;28;45773;-75
2023/01/11 15:13:43;;;;;;;;;19.75;13.75;;;;;22.54;45.92;101218.84;5025273;28;45438;-74
2023/01/11 15:19:04;;;;;;;;;18.25;14.00;;;;;22.51;46.01;101217.25;5038812;28;45515;-75
2023/01/11 15:21:30;;;;;;;;;17.75;14.25;;;;;22.50;45.80;101214.69;5037144;28;45395;-75
2023/01/11 15:23:57;;;;;;;;;16.00;15.00;;;;;22.56;46.04;101235.63;5039980;28;45593;-75
2023/01/11 15:26:24;;;;;;;;;16.75;14.00;;;;;22.59;45.72;101226.53;5051251;28;46134;-75
2023/01/11 15:28:56;;;;;;;;;14.00;12.00;;;;;22.59;45.98;101227.38;5021090;28;47405;-75
2023/01/11 15:31:47;;;;;;;;;11.25;10.50;;;;;22.61;45.97;101235.28;5021591;28;45293;-75
2023/01/11 15:34:27;;;;;;;;;14.25;12.00;;;;;22.58;46.02;101233.69;5039918;28;45489;-75
2023/01/11 15:36:59;;;;;;;;;17.00;12.75;;;;;22.63;45.92;101249.34;5035126;28;45438;-75